Time;durP1;ratioP1;P1;durP2;ratioP2;P2;SDS_P1;SDS_P2;PMS_P1;PMS_P2;Temp;Humidity;BMP_temperature;BMP_pressure;BME280_temperature;BME280_humidity;BME280_pressure;Samples;Min_cycle;Max_cycle;Signal;HPM_P1;HPM_P2
2022/02/22 00:01:12;;;;;;;9.75;1.52;;;6.60;99.90;;;;;;1959789;72;21098;-80
2022/02/22 00:03:41;;;;;;;4.45;1.15;;;6.60;99.90;;;;;;1983235;72;21452;-81
2022/02/22 00:06:08;;;;;;;16.67;1.95;;;6.70;99.90;;;;;;1977883;72;21063;-83
2022/02/22 00:08:37;;;;;;;11.03;1.82;;;6.70;99.90;;;;;;1983408;72;21020;-81
2022/02/22 00:11:05;;;;;;;3.27;1.30;;;6.70;99.90;;;;;;1981739;72;21043;-80
2022/02/22 00:13:33;;;;;;;8.83;1.47;;;6.70;99.90;;;;;;1969546;72;21057;-81
2022/02/22 00:16:01;;;;;;;3.72;1.45;;;6.70;99.90;;;;;;1962511;72;21105;-78
2022/02/22 00:18:28;;;;;;;7.33;1.25;;;6.70;99.90;;;;;;1972615;72;21127;-81
2022/02/22 00:20:55;;;;;;;4.05;1.25;;;6.70;99.90;;;;;;1969545;72;21019;-80
2022/02/22 00:23:25;;;;;;;4.35;1.37;;;6.70;99.90;;;;;;1954819;72;21501;-80
2022/02/22 00:25:52;;;;;;;3.52;1.30;;;6.60;99.90;;;;;;1968262;72;21059;-82
2022/02/22 00:28:20;;;;;;;5.15;1.45;;;6.70;99.90;;;;;;1955078;72;21148;-79
2022/02/22 00:30:48;;;;;;;9.20;1.75;;;6.70;99.90;;;;;;1959272;72;21062;-80
2022/02/22 00:33:17;;;;;;;5.85;1.20;;;6.80;99.90;;;;;;1974049;72;21136;-84
2022/02/22 00:35:44;;;;;;;5.70;1.37;;;6.80;99.90;;;;;;1968177;70;21136;-83
2022/02/22 00:38:12;;;;;;;4.20;1.30;;;6.80;99.90;;;;;;1959139;72;21059;-81
2022/02/22 00:40:39;;;;;;;6.92;1.45;;;6.90;99.90;;;;;;1954721;72;21046;-83
2022/02/22 00:43:06;;;;;;;3.33;1.00;;;6.90;99.90;;;;;;1965415;71;21051;-79
2022/02/22 00:45:36;;;;;;;4.33;1.30;;;6.90;99.90;;;;;;1959051;72;21135;-80
2022/02/22 00:48:03;;;;;;;5.60;1.10;;;6.90;99.90;;;;;;1979195;72;21074;-84
2022/02/22 00:50:30;;;;;;;5.95;1.30;;;6.90;99.90;;;;;;1971838;72;21098;-80
2022/02/22 00:52:58;;;;;;;7.37;1.25;;;6.90;99.90;;;;;;1963663;72;21061;-81
2022/02/22 00:55:25;;;;;;;8.85;1.82;;;6.80;99.90;;;;;;1980911;71;21063;-81
2022/02/22 00:57:53;;;;;;;8.05;1.80;;;6.80;99.90;;;;;;1962402;72;21050;-81
2022/02/22 01:00:20;;;;;;;4.60;1.37;;;6.80;99.90;;;;;;1966866;72;21093;-81
2022/02/22 01:02:47;;;;;;;4.40;1.35;;;6.80;99.90;;;;;;1975274;71;21063;-80
2022/02/22 01:05:15;;;;;;;5.08;1.55;;;6.80;99.90;;;;;;1962952;72;21054;-81
2022/02/22 01:07:43;;;;;;;7.70;1.50;;;6.80;99.90;;;;;;1971579;72;21060;-80
2022/02/22 01:10:10;;;;;;;7.35;1.70;;;6.80;99.90;;;;;;1961560;72;21063;-80
2022/02/22 01:12:37;;;;;;;5.58;1.50;;;6.80;99.90;;;;;;1977477;71;21068;-81
2022/02/22 01:15:05;;;;;;;4.12;1.22;;;6.80;99.90;;;;;;1972285;70;21031;-81
2022/02/22 01:17:33;;;;;;;5.40;1.70;;;6.80;99.90;;;;;;1958040;72;21019;-80
2022/02/22 01:20:05;;;;;;;7.62;1.60;;;6.80;99.90;;;;;;1979614;71;21031;-83
2022/02/22 01:22:29;;;;;;;6.12;1.98;;;6.80;99.90;;;;;;1979616;71;21463;-83
2022/02/22 01:24:58;;;;;;;8.15;1.60;;;6.80;99.90;;;;;;1962078;72;21059;-80
2022/02/22 01:27:25;;;;;;;7.12;1.70;;;6.80;99.90;;;;;;1982004;72;21039;-80
2022/02/22 01:29:52;;;;;;;5.55;1.55;;;6.80;99.90;;;;;;1981967;71;21187;-79
2022/02/22 01:32:19;;;;;;;8.25;1.65;;;6.70;99.90;;;;;;1981931;72;21035;-80
2022/02/22 01:34:47;;;;;;;7.75;1.57;;;6.80;99.90;;;;;;1962015;72;21124;-80
2022/02/22 01:37:14;;;;;;;5.15;1.27;;;6.70;99.90;;;;;;1975213;72;21449;-83
2022/02/22 01:39:45;;;;;;;10.63;1.70;;;6.70;99.90;;;;;;1970713;72;21344;-79
2022/02/22 01:42:10;;;;;;;2.72;1.25;;;6.70;99.90;;;;;;1963259;72;21164;-78
2022/02/22 01:44:38;;;;;;;8.38;1.57;;;6.70;99.90;;;;;;1980955;72;21005;-80
2022/02/22 01:47:05;;;;;;;8.13;1.85;;;6.60;99.90;;;;;;1984779;72;21034;-81
2022/02/22 01:49:33;;;;;;;5.85;1.77;;;6.60;99.90;;;;;;1973981;72;21125;-82
2022/02/22 01:52:02;;;;;;;12.33;1.60;;;6.60;99.90;;;;;;1979459;72;21542;-81
2022/02/22 01:54:29;;;;;;;3.95;1.15;;;6.60;99.90;;;;;;1958343;72;21046;-80
2022/02/22 01:56:57;;;;;;;5.45;1.45;;;6.60;99.90;;;;;;1983037;71;21199;-83
2022/02/22 01:59:24;;;;;;;5.60;1.30;;;6.60;99.90;;;;;;1964769;72;21478;-80
2022/02/22 02:01:51;;;;;;;8.05;1.45;;;6.40;99.90;;;;;;1957044;72;21529;-79
2022/02/22 02:04:19;;;;;;;6.47;1.85;;;6.40;99.90;;;;;;1982706;72;21008;-80
2022/02/22 02:06:46;;;;;;;7.97;1.07;;;6.30;99.90;;;;;;1966254;72;21446;-81
2022/02/22 02:09:13;;;;;;;3.95;1.25;;;6.20;99.90;;;;;;1956387;72;21004;-81
2022/02/22 02:11:47;;;;;;;5.45;1.40;;;6.20;99.90;;;;;;1957609;72;21086;-82
2022/02/22 02:14:16;;;;;;;5.30;1.27;;;6.10;99.90;;;;;;1982774;72;21003;-81
2022/02/22 02:16:43;;;;;;;5.08;1.30;;;6.00;99.90;;;;;;1943979;72;21054;-82
2022/02/22 02:19:15;;;;;;;10.85;1.72;;;5.90;99.90;;;;;;1966185;72;21525;-79
2022/02/22 02:21:43;;;;;;;5.00;1.27;;;5.80;99.90;;;;;;1967648;72;21480;-77
2022/02/22 02:24:21;;;;;;;5.53;1.45;;;5.70;99.90;;;;;;1973517;71;21171;-79
2022/02/22 02:26:49;;;;;;;5.28;1.35;;;5.60;99.90;;;;;;1987730;72;21505;-78
2022/02/22 02:29:19;;;;;;;5.47;1.32;;;5.60;99.90;;;;;;1966093;72;21050;-79
2022/02/22 02:31:47;;;;;;;10.10;1.70;;;5.50;99.90;;;;;;1960027;71;21132;-78
2022/02/22 02:34:16;;;;;;;8.38;1.87;;;5.50;99.90;;;;;;1973075;72;21734;-78
2022/02/22 02:36:46;;;;;;;7.37;1.82;;;5.50;99.90;;;;;;1963047;72;21407;-78
2022/02/22 02:39:13;;;;;;;5.87;1.85;;;5.50;99.90;;;;;;1967112;72;21131;-78
2022/02/22 02:41:42;;;;;;;11.03;2.08;;;5.50;99.90;;;;;;1977617;72;21117;-79
2022/02/22 02:44:11;;;;;;;9.20;1.85;;;5.40;99.90;;;;;;1971913;72;21505;-79
2022/02/22 02:46:39;;;;;;;7.20;1.25;;;5.50;99.90;;;;;;1967349;72;21060;-79
2022/02/22 02:49:07;;;;;;;6.78;1.57;;;5.60;99.90;;;;;;1976610;72;21063;-80
2022/02/22 02:51:35;;;;;;;9.00;1.65;;;5.60;99.90;;;;;;1959340;72;21115;-79
2022/02/22 02:54:02;;;;;;;1.95;1.02;;;5.50;99.90;;;;;;1969223;71;21101;-78
2022/02/22 02:56:29;;;;;;;6.78;1.40;;;5.40;99.90;;;;;;1955135;73;21010;-78
2022/02/22 02:58:59;;;;;;;8.10;1.82;;;5.40;99.90;;;;;;1971097;72;21536;-77
2022/02/22 03:01:27;;;;;;;11.23;2.20;;;5.50;99.90;;;;;;1964591;72;21031;-79
2022/02/22 03:03:54;;;;;;;6.40;2.00;;;5.60;99.90;;;;;;1982001;72;21116;-78
2022/02/22 03:06:22;;;;;;;6.30;1.65;;;5.60;99.90;;;;;;1982077;72;21058;-78
2022/02/22 03:08:49;;;;;;;3.87;1.35;;;5.60;99.90;;;;;;1982117;72;21152;-78
2022/02/22 03:11:18;;;;;;;6.72;1.55;;;5.70;99.90;;;;;;1967828;71;21035;-78
2022/02/22 03:13:45;;;;;;;4.83;1.67;;;5.60;99.90;;;;;;1977328;72;21100;-78
2022/02/22 03:16:13;;;;;;;8.18;1.92;;;5.50;99.90;;;;;;1971721;72;21097;-81
2022/02/22 03:18:42;;;;;;;4.12;1.35;;;5.50;99.90;;;;;;1967274;72;21451;-79
2022/02/22 03:21:09;;;;;;;11.45;1.82;;;5.50;99.90;;;;;;1958133;71;21054;-80
2022/02/22 03:23:38;;;;;;;6.40;1.37;;;5.50;99.90;;;;;;1959419;72;21170;-78
2022/02/22 03:26:06;;;;;;;7.00;1.80;;;5.50;99.90;;;;;;1955343;72;21131;-78
2022/02/22 03:28:34;;;;;;;4.92;1.22;;;5.60;99.90;;;;;;1982061;72;21170;-78
2022/02/22 03:31:03;;;;;;;11.53;1.47;;;5.60;99.90;;;;;;1982039;72;21105;-79
2022/02/22 03:33:31;;;;;;;5.15;1.52;;;5.70;99.90;;;;;;1962538;72;21206;-79
2022/02/22 03:35:59;;;;;;;11.78;1.42;;;5.70;99.90;;;;;;1977103;72;21038;-78
2022/02/22 03:38:26;;;;;;;4.95;1.42;;;5.70;99.90;;;;;;1982125;72;21035;-79
2022/02/22 03:40:54;;;;;;;5.90;1.57;;;5.70;99.90;;;;;;1981921;71;21062;-79
2022/02/22 03:43:21;;;;;;;12.78;1.62;;;5.60;99.90;;;;;;1961614;72;21053;-79
2022/02/22 03:45:48;;;;;;;4.72;1.62;;;5.60;99.90;;;;;;1968679;72;21136;-79
2022/02/22 03:48:15;;;;;;;7.53;1.72;;;5.50;99.90;;;;;;1984956;71;21040;-79
2022/02/22 03:50:44;;;;;;;4.40;1.75;;;5.50;99.90;;;;;;1959920;72;21428;-78
2022/02/22 03:53:11;;;;;;;8.00;1.82;;;5.60;99.90;;;;;;1982307;71;21075;-80
2022/02/22 03:55:39;;;;;;;6.70;1.50;;;5.60;99.90;;;;;;1957610;72;21123;-78
2022/02/22 03:58:06;;;;;;;5.50;1.62;;;5.60;99.90;;;;;;1972289;71;21128;-80
2022/02/22 04:00:35;;;;;;;7.60;1.90;;;5.50;99.90;;;;;;1982134;72;21447;-78
2022/02/22 04:03:08;;;;;;;7.12;1.90;;;5.50;99.90;;;;;;1977351;72;21153;-81
2022/02/22 04:05:35;;;;;;;8.10;1.55;;;5.50;99.90;;;;;;1971661;72;21075;-83
2022/02/22 04:08:02;;;;;;;11.45;1.90;;;5.60;99.90;;;;;;1981958;72;21067;-80
2022/02/22 04:10:30;;;;;;;11.12;1.85;;;5.60;99.90;;;;;;1982071;72;21128;-79
2022/02/22 04:12:57;;;;;;;6.65;2.00;;;5.50;99.90;;;;;;1977489;72;21132;-78
2022/02/22 04:15:26;;;;;;;12.05;2.40;;;5.60;99.90;;;;;;1976769;72;21035;-78
2022/02/22 04:17:53;;;;;;;4.20;1.92;;;5.60;99.90;;;;;;1968681;72;21462;-79
2022/02/22 04:20:20;;;;;;;10.03;2.20;;;5.60;99.90;;;;;;1979756;72;21092;-80
2022/02/22 04:22:50;;;;;;;9.23;2.30;;;5.60;99.90;;;;;;1954792;72;21229;-78
2022/02/22 04:25:17;;;;;;;8.05;1.82;;;5.60;99.90;;;;;;1965862;72;21057;-79
2022/02/22 04:27:44;;;;;;;9.53;1.92;;;5.60;99.90;;;;;;1982120;72;21023;-78
2022/02/22 04:30:12;;;;;;;5.17;1.60;;;5.60;99.90;;;;;;1982018;72;21058;-82
2022/02/22 04:32:40;;;;;;;6.30;1.62;;;5.70;99.90;;;;;;1981954;72;21051;-79
2022/02/22 04:35:09;;;;;;;11.60;1.27;;;5.60;99.90;;;;;;1962610;72;21123;-79
2022/02/22 04:37:36;;;;;;;9.28;1.60;;;5.50;99.90;;;;;;1971495;72;21040;-78
2022/02/22 04:40:04;;;;;;;4.67;1.20;;;5.30;99.90;;;;;;1970393;72;21055;-79
2022/02/22 04:42:31;;;;;;;6.03;1.40;;;5.20;99.90;;;;;;1982761;72;21027;-80
2022/02/22 04:44:59;;;;;;;4.72;1.32;;;5.00;99.90;;;;;;1982732;71;21429;-79
2022/02/22 04:47:26;;;;;;;8.63;1.65;;;5.00;99.90;;;;;;1971749;72;21198;-79
2022/02/22 04:49:53;;;;;;;4.37;1.42;;;5.10;99.90;;;;;;1977484;72;21054;-78
2022/02/22 04:52:21;;;;;;;7.92;1.72;;;5.10;99.90;;;;;;1982006;71;21455;-79
2022/02/22 04:54:48;;;;;;;6.20;1.65;;;5.10;99.90;;;;;;1970757;71;21054;-80
2022/02/22 04:57:18;;;;;;;12.85;2.65;;;5.00;99.90;;;;;;1959862;72;21059;-80
2022/02/22 04:59:45;;;;;;;5.72;1.90;;;5.00;99.90;;;;;;1982098;71;21063;-81
2022/02/22 05:02:14;;;;;;;9.95;1.92;;;5.00;99.90;;;;;;1965912;72;21474;-80
2022/02/22 05:04:42;;;;;;;7.37;1.65;;;4.90;99.90;;;;;;1958666;72;21062;-83
2022/02/22 05:07:09;;;;;;;6.35;1.90;;;5.00;99.90;;;;;;1980619;72;21097;-80
2022/02/22 05:09:36;;;;;;;5.95;1.45;;;5.10;99.90;;;;;;1973613;72;21080;-78
2022/02/22 05:12:04;;;;;;;6.60;1.87;;;5.20;99.90;;;;;;1972270;72;21604;-80
2022/02/22 05:14:31;;;;;;;7.85;1.50;;;5.10;99.90;;;;;;1973138;71;21123;-80
2022/02/22 05:16:58;;;;;;;7.15;1.67;;;5.00;99.90;;;;;;1965402;72;21139;-79
2022/02/22 05:19:26;;;;;;;5.17;1.65;;;5.00;99.90;;;;;;1957800;72;21030;-79
2022/02/22 05:21:54;;;;;;;8.33;2.00;;;4.90;99.90;;;;;;1976985;71;21176;-78
2022/02/22 05:24:21;;;;;;;8.78;1.90;;;4.90;99.90;;;;;;1982118;72;21027;-79
2022/02/22 05:26:49;;;;;;;5.67;1.55;;;4.80;99.90;;;;;;1971770;72;21058;-78
2022/02/22 05:29:16;;;;;;;8.78;2.62;;;4.70;99.90;;;;;;1971967;72;21141;-78
2022/02/22 05:31:43;;;;;;;8.30;1.67;;;4.70;99.90;;;;;;1982171;71;21069;-79
2022/02/22 05:34:10;;;;;;;4.22;1.60;;;4.70;99.90;;;;;;1971853;71;21571;-79
2022/02/22 05:36:38;;;;;;;9.63;2.33;;;4.70;99.90;;;;;;1982395;72;21092;-79
2022/02/22 05:39:07;;;;;;;8.88;2.10;;;4.60;99.90;;;;;;1966558;72;21067;-79
2022/02/22 05:41:34;;;;;;;8.03;2.55;;;4.60;99.90;;;;;;1967956;72;21139;-79
2022/02/22 05:44:01;;;;;;;9.18;2.05;;;4.60;99.90;;;;;;1961564;72;21003;-78
2022/02/22 05:46:30;;;;;;;9.38;2.08;;;4.50;99.90;;;;;;1979324;71;21421;-80
2022/02/22 05:48:57;;;;;;;3.77;1.45;;;4.40;99.90;;;;;;1982144;71;21549;-79
2022/02/22 05:51:24;;;;;;;14.90;2.55;;;4.60;99.90;;;;;;1969941;72;21107;-79
2022/02/22 05:53:52;;;;;;;5.15;1.75;;;4.70;99.90;;;;;;1924324;73;21515;-79
2022/02/22 05:56:19;;;;;;;8.15;2.05;;;4.60;99.90;;;;;;1967619;72;21149;-79
2022/02/22 05:58:48;;;;;;;8.55;2.05;;;4.60;99.90;;;;;;1982214;72;21386;-79
2022/02/22 06:01:15;;;;;;;13.75;2.85;;;4.60;99.90;;;;;;1982034;72;21529;-80
2022/02/22 06:03:43;;;;;;;8.50;2.22;;;4.50;99.90;;;;;;1970493;72;21062;-79
2022/02/22 06:06:10;;;;;;;5.47;2.15;;;4.50;99.90;;;;;;1970004;72;21214;-79
2022/02/22 06:08:37;;;;;;;4.72;1.87;;;4.40;99.90;;;;;;1982055;72;21027;-79
2022/02/22 06:11:05;;;;;;;9.10;2.45;;;4.40;99.90;;;;;;1972300;72;21125;-79
2022/02/22 06:13:32;;;;;;;4.97;1.90;;;4.40;99.90;;;;;;1982027;72;21148;-79
2022/02/22 06:16:19;;;;;;;7.62;1.87;;;4.40;99.90;;;;;;1956322;72;21055;-79
2022/02/22 06:18:46;;;;;;;6.47;2.40;;;4.40;99.90;;;;;;1991110;72;21046;-79
2022/02/22 06:21:13;;;;;;;6.37;1.98;;;4.30;99.90;;;;;;1989092;72;21044;-76
2022/02/22 06:23:41;;;;;;;7.92;2.12;;;4.30;99.90;;;;;;1994493;72;21010;-79
2022/02/22 06:26:08;;;;;;;8.48;2.00;;;4.30;99.90;;;;;;1990678;72;21076;-79
2022/02/22 06:28:35;;;;;;;4.20;1.77;;;4.30;99.90;;;;;;1985232;72;21121;-81
2022/02/22 06:31:06;;;;;;;10.48;2.20;;;4.30;99.90;;;;;;1990844;72;21022;-81
2022/02/22 06:33:35;;;;;;;14.25;2.42;;;4.30;99.90;;;;;;1990744;72;21045;-81
2022/02/22 06:36:02;;;;;;;11.65;1.98;;;4.50;99.90;;;;;;1989035;72;21058;-81
2022/02/22 06:38:29;;;;;;;5.53;1.98;;;4.50;99.90;;;;;;2001349;72;21018;-76
2022/02/22 06:40:57;;;;;;;7.75;1.82;;;4.60;99.90;;;;;;1992753;72;21445;-77
2022/02/22 06:43:44;;;;;;;10.82;2.37;;;4.80;99.90;;;;;;1989301;72;21110;-78
2022/02/22 06:46:11;;;;;;;12.28;2.10;;;4.90;99.90;;;;;;1822419;78;21122;-76
2022/02/22 06:48:38;;;;;;;6.67;2.15;;;4.90;99.90;;;;;;1827517;76;21499;-77
2022/02/22 06:51:07;;;;;;;9.33;2.17;;;5.00;99.90;;;;;;1836905;77;21089;-80
2022/02/22 06:53:35;;;;;;;12.15;2.77;;;5.00;99.90;;;;;;1820218;79;21173;-80
2022/02/22 06:56:03;;;;;;;9.45;2.15;;;5.10;99.90;;;;;;1820099;79;21060;-76
2022/02/22 06:58:32;;;;;;;6.28;2.02;;;5.10;99.90;;;;;;1833140;77;21088;-76
2022/02/22 07:00:59;;;;;;;11.08;2.25;;;5.20;99.90;;;;;;1820041;79;21089;-77
2022/02/22 07:03:26;;;;;;;14.87;3.12;;;5.20;99.90;;;;;;1820119;79;21099;-77
2022/02/22 07:05:54;;;;;;;8.05;1.75;;;5.20;99.90;;;;;;1820082;79;21150;-77
2022/02/22 07:08:21;;;;;;;11.80;2.20;;;5.30;99.90;;;;;;1820113;79;21056;-77
2022/02/22 07:10:49;;;;;;;6.33;1.70;;;5.30;99.90;;;;;;1838581;76;21512;-76
2022/02/22 07:13:17;;;;;;;14.98;2.08;;;5.40;99.90;;;;;;1836563;77;21503;-77
2022/02/22 07:15:44;;;;;;;10.18;2.12;;;5.30;99.90;;;;;;1826536;76;21497;-77
2022/02/22 07:18:13;;;;;;;7.70;2.12;;;5.30;99.90;;;;;;1820245;79;21061;-76
2022/02/22 07:20:40;;;;;;;9.33;2.12;;;5.30;99.90;;;;;;1820158;79;21147;-76
2022/02/22 07:23:07;;;;;;;8.30;1.90;;;5.40;99.90;;;;;;1820204;79;21137;-75
2022/02/22 07:25:36;;;;;;;13.40;2.00;;;5.30;99.90;;;;;;1820110;79;21052;-76
2022/02/22 07:28:03;;;;;;;9.80;2.10;;;5.20;99.90;;;;;;1820284;79;21033;-77
2022/02/22 07:30:31;;;;;;;10.48;2.42;;;5.20;99.90;;;;;;1820041;76;21092;-77
2022/02/22 07:33:02;;;;;;;5.45;2.02;;;5.20;99.90;;;;;;1834629;76;21096;-77
2022/02/22 07:35:29;;;;;;;10.20;2.33;;;5.20;99.90;;;;;;1820496;79;21494;-77
2022/02/22 07:37:57;;;;;;;9.68;2.15;;;5.20;99.90;;;;;;1820581;79;21080;-76
2022/02/22 07:40:24;;;;;;;9.00;2.08;;;5.30;99.90;;;;;;1826069;76;21088;-77
2022/02/22 07:42:51;;;;;;;6.45;2.10;;;5.30;99.90;;;;;;1820570;79;21056;-77
2022/02/22 07:45:20;;;;;;;6.92;2.10;;;5.40;99.90;;;;;;1820307;79;21140;-77
2022/02/22 07:47:47;;;;;;;5.70;1.82;;;5.50;99.90;;;;;;1820219;79;21130;-77
2022/02/22 07:50:15;;;;;;;11.12;1.85;;;5.60;99.90;;;;;;1820095;79;21531;-76
2022/02/22 07:52:42;;;;;;;10.13;2.08;;;5.60;99.90;;;;;;1820159;79;21130;-76
2022/02/22 07:55:09;;;;;;;12.68;2.25;;;5.70;99.90;;;;;;1820471;79;21065;-75
2022/02/22 07:57:37;;;;;;;8.68;1.72;;;5.80;99.90;;;;;;1825311;77;21197;-76
2022/02/22 08:00:12;;;;;;;7.95;1.82;;;5.90;99.90;;;;;;1825607;76;21473;-76
2022/02/22 08:02:36;;;;;;;8.00;1.70;;;5.90;99.90;;;;;;1827324;76;21123;-75
2022/02/22 08:05:04;;;;;;;12.98;2.00;;;5.90;99.90;;;;;;1826087;77;21236;-76
2022/02/22 08:07:35;;;;;;;12.30;2.20;;;6.00;99.90;;;;;;1826051;76;21182;-76
2022/02/22 08:10:01;;;;;;;11.50;2.80;;;6.00;99.90;;;;;;1795990;78;21076;-76
2022/02/22 08:12:30;;;;;;;10.25;1.90;;;6.10;99.90;;;;;;1832604;77;21107;-77
2022/02/22 08:14:58;;;;;;;8.88;2.22;;;6.10;99.90;;;;;;1819988;79;21064;-76
2022/02/22 08:17:25;;;;;;;9.23;2.62;;;6.20;99.90;;;;;;1831259;76;21068;-76
2022/02/22 08:19:52;;;;;;;17.45;2.45;;;6.30;99.90;;;;;;1828482;76;21202;-75
2022/02/22 08:22:20;;;;;;;13.03;2.37;;;6.30;99.90;;;;;;1849217;77;21079;-76
2022/02/22 08:24:47;;;;;;;10.78;2.20;;;6.40;99.90;;;;;;1838320;77;21217;-76
2022/02/22 08:27:14;;;;;;;10.05;2.00;;;6.40;99.90;;;;;;1820061;79;21119;-76
2022/02/22 08:29:42;;;;;;;5.67;1.80;;;6.50;99.90;;;;;;1820083;79;21128;-76
2022/02/22 08:32:09;;;;;;;8.63;2.08;;;6.60;99.90;;;;;;1844058;76;21478;-76
2022/02/22 08:34:36;;;;;;;9.70;2.77;;;6.80;99.90;;;;;;1841166;77;21621;-75
2022/02/22 08:37:05;;;;;;;7.78;2.62;;;6.90;99.90;;;;;;1830405;77;21173;-77
2022/02/22 08:39:32;;;;;;;9.98;2.05;;;7.10;99.90;;;;;;1820160;79;21060;-76
2022/02/22 08:42:03;;;;;;;8.95;1.98;;;7.20;99.90;;;;;;1820084;79;21158;-77
2022/02/22 08:44:29;;;;;;;11.15;1.95;;;7.60;99.90;;;;;;1831503;76;21554;-76
2022/02/22 08:46:56;;;;;;;8.70;1.92;;;7.70;99.90;;;;;;1820063;79;21521;-76
2022/02/22 08:49:24;;;;;;;5.53;1.90;;;7.70;99.90;;;;;;1819953;79;21139;-76
2022/02/22 08:51:51;;;;;;;11.55;2.47;;;7.70;99.90;;;;;;1820036;79;21048;-75
2022/02/22 08:54:18;;;;;;;10.43;2.42;;;7.70;99.90;;;;;;1820134;79;21076;-76
2022/02/22 08:56:45;;;;;;;10.32;2.25;;;7.70;99.90;;;;;;1831745;76;21065;-76
2022/02/22 08:59:13;;;;;;;9.45;2.30;;;7.80;99.90;;;;;;1820026;79;21096;-77
2022/02/22 09:01:40;;;;;;;7.53;1.70;;;7.70;99.90;;;;;;1820055;79;21060;-75
2022/02/22 09:04:08;;;;;;;10.03;2.08;;;7.70;99.90;;;;;;1820097;79;21091;-77
2022/02/22 09:06:35;;;;;;;5.37;1.85;;;7.80;99.90;;;;;;1820016;79;21134;-77
2022/02/22 09:09:02;;;;;;;12.37;2.17;;;7.70;99.90;;;;;;1825689;76;21220;-76
2022/02/22 09:11:31;;;;;;;6.47;1.70;;;7.70;99.90;;;;;;1820169;79;21449;-76
2022/02/22 09:13:59;;;;;;;5.58;1.70;;;7.80;99.90;;;;;;1820072;79;21166;-76
2022/02/22 09:16:26;;;;;;;6.22;1.95;;;7.70;99.90;;;;;;1819980;79;21135;-76
2022/02/22 09:18:53;;;;;;;11.28;1.90;;;7.80;99.90;;;;;;1820158;79;21052;-77
2022/02/22 09:21:21;;;;;;;12.23;1.87;;;7.90;99.90;;;;;;1820176;79;21538;-76
2022/02/22 09:23:48;;;;;;;8.48;1.72;;;7.90;99.90;;;;;;1823696;76;21136;-77
2022/02/22 09:26:15;;;;;;;9.90;1.55;;;7.90;99.90;;;;;;1820071;79;21033;-77
2022/02/22 09:28:45;;;;;;;8.83;1.75;;;7.80;99.90;;;;;;1820137;79;21140;-77
2022/02/22 09:31:13;;;;;;;6.17;1.92;;;7.90;99.90;;;;;;1826023;76;21073;-77
2022/02/22 09:33:40;;;;;;;6.62;1.80;;;7.80;99.90;;;;;;1837122;76;21065;-76
2022/02/22 09:36:08;;;;;;;7.67;2.02;;;7.80;99.90;;;;;;1827307;76;21503;-76
2022/02/22 09:38:35;;;;;;;9.10;2.27;;;7.80;99.90;;;;;;1849178;77;21091;-77
2022/02/22 09:41:03;;;;;;;10.43;1.90;;;7.80;99.90;;;;;;1823895;75;21213;-75
2022/02/22 09:43:32;;;;;;;6.70;1.72;;;7.90;99.90;;;;;;1831778;76;21271;-77
2022/02/22 09:45:59;;;;;;;8.58;1.65;;;7.90;99.90;;;;;;1841033;77;21166;-78
2022/02/22 09:48:27;;;;;;;8.38;1.72;;;7.80;99.90;;;;;;1820089;79;21220;-78
2022/02/22 09:50:55;;;;;;;11.43;2.20;;;7.90;99.90;;;;;;1819893;79;21037;-77
2022/02/22 09:53:24;;;;;;;11.70;1.72;;;7.70;99.90;;;;;;1820208;77;21162;-76
2022/02/22 09:55:53;;;;;;;15.78;2.27;;;7.80;99.90;;;;;;1820228;78;21173;-77
2022/02/22 09:58:20;;;;;;;6.40;2.15;;;7.90;99.90;;;;;;1820085;79;21060;-77
2022/02/22 10:00:59;;;;;;;16.48;2.30;;;8.00;99.90;;;;;;1819941;79;21158;-77
2022/02/22 10:03:28;;;;;;;11.50;1.87;;;7.90;99.90;;;;;;1841529;76;21475;-76
2022/02/22 10:06:00;;;;;;;5.70;1.67;;;8.00;99.90;;;;;;1842636;76;21112;-76
2022/02/22 10:08:32;;;;;;;5.87;1.98;;;8.00;99.90;;;;;;1834428;76;21381;-77
2022/02/22 10:11:04;;;;;;;9.53;1.60;;;8.10;99.90;;;;;;1820447;79;21131;-78
2022/02/22 10:13:32;;;;;;;8.45;1.50;;;8.10;99.90;;;;;;1820294;79;21060;-78
2022/02/22 10:15:59;;;;;;;5.60;1.52;;;8.00;99.90;;;;;;1820073;79;21155;-77
2022/02/22 10:18:27;;;;;;;4.50;1.50;;;8.00;99.90;;;;;;1820132;79;21052;-76
2022/02/22 10:20:54;;;;;;;5.50;1.70;;;8.00;99.90;;;;;;1820134;79;21145;-78
2022/02/22 10:23:31;;;;;;;4.67;1.52;;;8.10;99.90;;;;;;1795014;79;21056;-77
2022/02/22 10:25:59;;;;;;;6.03;1.90;;;8.20;99.90;;;;;;1820241;79;21095;-77
2022/02/22 10:28:26;;;;;;;11.93;1.70;;;8.50;99.90;;;;;;1820179;79;21072;-77
2022/02/22 10:30:54;;;;;;;6.70;1.70;;;8.60;99.90;;;;;;1820225;79;21052;-78
2022/02/22 10:33:27;;;;;;;6.10;1.80;;;8.80;99.90;;;;;;1824956;76;21146;-79
2022/02/22 10:36:04;;;;;;;7.03;1.98;;;8.80;99.90;;;;;;1820829;79;21162;-78
2022/02/22 10:38:36;;;;;;;6.90;1.20;;;8.80;99.90;;;;;;1820299;79;21171;-77
2022/02/22 10:41:05;;;;;;;4.67;1.62;;;8.80;99.90;;;;;;1820465;79;21071;-79
2022/02/22 10:43:35;;;;;;;4.37;1.72;;;9.00;99.90;;;;;;1829776;76;21068;-79
2022/02/22 10:46:05;;;;;;;8.67;2.70;;;9.10;99.90;;;;;;1832853;76;21083;-78
2022/02/22 10:48:34;;;;;;;11.07;2.00;;;9.20;99.90;;;;;;1841977;75;21250;-78
2022/02/22 10:51:04;;;;;;;10.20;2.00;;;9.40;99.90;;;;;;1820473;79;21061;-79
2022/02/22 10:53:43;;;;;;;8.18;1.75;;;9.20;99.90;;;;;;1820501;79;21033;-78
2022/02/22 10:56:14;;;;;;;4.55;1.70;;;9.30;99.90;;;;;;1820193;79;21020;-79
2022/02/22 10:58:44;;;;;;;4.58;1.65;;;9.40;99.90;;;;;;1820165;79;21041;-78
2022/02/22 11:01:13;;;;;;;6.83;1.90;;;9.40;99.90;;;;;;1820116;78;21073;-78
2022/02/22 11:03:42;;;;;;;10.45;2.37;;;9.40;99.90;;;;;;1825226;76;21542;-79
2022/02/22 11:06:13;;;;;;;4.53;2.05;;;9.50;99.90;;;;;;1844224;75;21056;-77
2022/02/22 11:08:48;;;;;;;11.57;2.12;;;9.40;99.90;;;;;;1820251;79;21114;-78
2022/02/22 11:11:18;;;;;;;9.08;2.02;;;9.40;99.90;;;;;;1822071;76;21161;-76
2022/02/22 11:13:47;;;;;;;;;;;9.20;99.90;;;;;;1822889;77;21428;-78
2022/02/22 11:16:17;;;;;;;8.33;1.70;;;9.00;99.90;;;;;;1819100;78;20147;-77
2022/02/22 11:18:52;;;;;;;8.68;1.90;;;9.10;99.90;;;;;;1822421;76;21100;-77
2022/02/22 11:21:22;;;;;;;5.30;2.08;;;9.10;99.90;;;;;;1820136;79;21430;-77
2022/02/22 11:23:52;;;;;;;4.92;1.62;;;9.10;99.90;;;;;;1825085;77;21536;-76
2022/02/22 11:26:22;;;;;;;8.75;2.25;;;9.20;99.90;;;;;;1818544;79;21122;-77
2022/02/22 11:28:52;;;;;;;8.40;1.87;;;9.30;99.90;;;;;;1834564;75;21087;-77
2022/02/22 11:31:22;;;;;;;11.75;2.10;;;9.30;99.90;;;;;;1836727;77;21143;-77
2022/02/22 11:33:51;;;;;;;9.98;2.15;;;9.30;99.90;;;;;;1839218;76;21140;-79
2022/02/22 11:36:36;;;;;;;5.10;1.70;;;9.50;99.90;;;;;;1845266;76;21135;-77
2022/02/22 11:39:08;;;;;;;10.05;2.15;;;9.30;99.90;;;;;;1837558;77;21108;-76
2022/02/22 11:41:40;;;;;;;7.78;1.90;;;9.20;99.90;;;;;;1820776;79;21118;-76
2022/02/22 11:44:21;;;;;;;6.50;1.92;;;9.00;99.90;;;;;;1820616;79;21092;-78
2022/02/22 11:46:52;;;;;;;7.42;2.10;;;9.00;99.90;;;;;;1820612;79;21084;-77
2022/02/22 11:49:31;;;;;;;9.60;2.15;;;9.20;99.90;;;;;;1820075;78;21080;-76
2022/02/22 11:52:13;;;;;;;8.83;1.85;;;9.10;99.90;;;;;;1820637;79;21099;-78
2022/02/22 11:54:44;;;;;;;7.60;2.17;;;9.20;99.90;;;;;;1820695;79;21084;-76
2022/02/22 11:57:17;;;;;;;8.10;2.10;;;9.20;99.90;;;;;;1818789;78;21064;-77
2022/02/22 11:59:53;;;;;;;7.70;1.67;;;9.30;99.90;;;;;;1820642;79;21488;-75
2022/02/22 12:02:29;;;;;;;9.50;1.95;;;9.30;99.90;;;;;;1820725;79;21061;-77
2022/02/22 12:04:57;;;;;;;6.55;1.95;;;9.50;99.90;;;;;;1820701;79;21124;-77
2022/02/22 12:07:32;;;;;;;13.93;1.98;;;9.50;99.90;;;;;;1820432;79;21452;-78
2022/02/22 12:10:00;;;;;;;7.28;2.02;;;9.40;99.90;;;;;;1839559;76;21088;-79
2022/02/22 12:12:30;;;;;;;5.60;2.12;;;9.70;99.90;;;;;;1826001;77;21340;-79
2022/02/22 12:14:59;;;;;;;6.92;2.22;;;9.80;99.90;;;;;;1820615;79;21060;-77
2022/02/22 12:17:26;;;;;;;9.37;2.23;;;9.90;99.90;;;;;;1821258;79;21045;-77
2022/02/22 12:19:58;;;;;;;7.53;1.98;;;9.90;99.90;;;;;;1826475;76;21183;-74
2022/02/22 12:22:27;;;;;;;9.08;1.87;;;9.80;99.90;;;;;;1820864;79;21077;-76
2022/02/22 12:25:01;;;;;;;5.95;1.80;;;9.80;99.90;;;;;;1820364;77;21448;-76
2022/02/22 12:27:30;;;;;;;9.05;2.02;;;9.80;99.90;;;;;;1820412;79;21037;-76
2022/02/22 12:29:59;;;;;;;10.50;1.95;;;10.10;99.90;;;;;;1820493;79;21147;-78
2022/02/22 12:32:32;;;;;;;6.25;1.87;;;10.20;99.90;;;;;;1820577;79;21201;-77
2022/02/22 12:34:58;;;;;;;8.43;2.02;;;10.30;99.90;;;;;;1821479;76;21460;-77
2022/02/22 12:37:26;;;;;;;6.75;1.98;;;10.70;99.90;;;;;;1845067;77;21594;-77
2022/02/22 12:39:53;;;;;;;15.23;2.00;;;10.60;99.90;;;;;;1820694;79;21053;-74
2022/02/22 12:42:20;;;;;;;4.47;1.77;;;11.00;99.90;;;;;;1794966;79;21127;-77
2022/02/22 12:44:50;;;;;;;6.05;1.75;;;11.20;99.90;;;;;;1820271;79;21059;-77
2022/02/22 12:47:18;;;;;;;13.08;2.33;;;10.70;99.90;;;;;;1837924;77;21096;-76
2022/02/22 12:49:47;;;;;;;13.50;1.92;;;10.30;99.90;;;;;;1795209;79;21088;-77
2022/02/22 12:52:16;;;;;;;7.50;2.08;;;9.90;99.90;;;;;;1820137;79;21065;-79
2022/02/22 12:54:43;;;;;;;4.17;1.52;;;9.80;99.90;;;;;;1820142;79;21462;-77
2022/02/22 12:57:11;;;;;;;7.83;1.90;;;9.80;99.90;;;;;;1819910;79;21064;-77
2022/02/22 12:59:41;;;;;;;5.65;1.70;;;10.00;99.90;;;;;;1819895;79;21060;-76
2022/02/22 13:02:08;;;;;;;6.08;2.17;;;10.10;99.90;;;;;;1820508;77;21072;-75